sensor_id;sensor_type;location;lat;lon;timestamp;P1;durP1;ratioP1;P2;durP2;ratioP2
51594;SDS011;37677;53.254;6.594;2023-07-22T00:01:12;6.40;;;4.30;;
51594;SDS011;37677;53.254;6.594;2023-07-22T00:03:38;6.65;;;4.93;;
51594;SDS011;37677;53.254;6.594;2023-07-22T00:06:08;7.82;;;5.00;;
51594;SDS011;37677;53.254;6.594;2023-07-22T00:08:35;7.95;;;4.88;;
51594;SDS011;37677;53.254;6.594;2023-07-22T00:11:02;7.78;;;5.30;;
51594;SDS011;37677;53.254;6.594;2023-07-22T00:13:28;6.57;;;4.90;;
51594;SDS011;37677;53.254;6.594;2023-07-22T00:15:54;6.22;;;4.93;;
51594;SDS011;37677;53.254;6.594;2023-07-22T00:18:20;7.57;;;5.10;;
51594;SDS011;37677;53.254;6.594;2023-07-22T00:23:16;7.90;;;4.70;;
51594;SDS011;37677;53.254;6.594;2023-07-22T00:25:42;7.72;;;5.00;;
51594;SDS011;37677;53.254;6.594;2023-07-22T00:28:08;6.30;;;4.68;;
51594;SDS011;37677;53.254;6.594;2023-07-22T00:30:35;7.53;;;4.90;;
51594;SDS011;37677;53.254;6.594;2023-07-22T00:33:01;7.72;;;4.93;;
51594;SDS011;37677;53.254;6.594;2023-07-22T00:35:27;7.50;;;4.90;;
51594;SDS011;37677;53.254;6.594;2023-07-22T00:37:53;6.13;;;4.63;;
51594;SDS011;37677;53.254;6.594;2023-07-22T00:40:19;6.55;;;4.65;;
51594;SDS011;37677;53.254;6.594;2023-07-22T00:42:48;5.90;;;4.55;;
51594;SDS011;37677;53.254;6.594;2023-07-22T00:45:14;8.18;;;4.50;;
51594;SDS011;37677;53.254;6.594;2023-07-22T00:47:41;6.80;;;4.35;;
51594;SDS011;37677;53.254;6.594;2023-07-22T00:50:07;6.00;;;4.60;;
51594;SDS011;37677;53.254;6.594;2023-07-22T00:52:34;9.10;;;4.53;;
51594;SDS011;37677;53.254;6.594;2023-07-22T00:55:00;7.97;;;4.47;;
51594;SDS011;37677;53.254;6.594;2023-07-22T00:57:30;6.32;;;4.05;;
51594;SDS011;37677;53.254;6.594;2023-07-22T00:59:56;10.90;;;4.40;;
51594;SDS011;37677;53.254;6.594;2023-07-22T01:02:22;5.50;;;4.07;;
51594;SDS011;37677;53.254;6.594;2023-07-22T01:04:49;4.85;;;3.33;;
51594;SDS011;37677;53.254;6.594;2023-07-22T01:07:17;4.43;;;3.28;;
51594;SDS011;37677;53.254;6.594;2023-07-22T01:09:43;5.13;;;3.58;;
51594;SDS011;37677;53.254;6.594;2023-07-22T01:12:10;4.80;;;3.53;;
51594;SDS011;37677;53.254;6.594;2023-07-22T01:14:42;8.25;;;3.85;;
51594;SDS011;37677;53.254;6.594;2023-07-22T01:17:09;4.55;;;3.55;;
51594;SDS011;37677;53.254;6.594;2023-07-22T01:19:36;5.57;;;3.80;;
51594;SDS011;37677;53.254;6.594;2023-07-22T01:22:03;4.43;;;3.42;;
51594;SDS011;37677;53.254;6.594;2023-07-22T01:24:31;4.45;;;3.30;;
51594;SDS011;37677;53.254;6.594;2023-07-22T01:26:57;6.95;;;3.70;;
51594;SDS011;37677;53.254;6.594;2023-07-22T01:29:23;6.32;;;3.55;;
51594;SDS011;37677;53.254;6.594;2023-07-22T01:31:50;6.85;;;3.50;;
51594;SDS011;37677;53.254;6.594;2023-07-22T01:34:17;5.50;;;4.28;;
51594;SDS011;37677;53.254;6.594;2023-07-22T01:36:46;7.22;;;4.55;;
51594;SDS011;37677;53.254;6.594;2023-07-22T01:39:14;9.60;;;4.30;;
51594;SDS011;37677;53.254;6.594;2023-07-22T01:41:40;6.65;;;4.30;;
51594;SDS011;37677;53.254;6.594;2023-07-22T01:44:06;6.47;;;4.63;;
51594;SDS011;37677;53.254;6.594;2023-07-22T01:46:33;7.57;;;4.30;;
51594;SDS011;37677;53.254;6.594;2023-07-22T01:49:00;7.30;;;4.63;;
51594;SDS011;37677;53.254;6.594;2023-07-22T01:51:27;8.82;;;4.43;;
51594;SDS011;37677;53.254;6.594;2023-07-22T01:53:53;4.65;;;3.67;;
51594;SDS011;37677;53.254;6.594;2023-07-22T01:56:22;7.43;;;4.32;;
51594;SDS011;37677;53.254;6.594;2023-07-22T01:58:48;6.18;;;4.78;;
51594;SDS011;37677;53.254;6.594;2023-07-22T02:01:14;9.82;;;4.80;;
51594;SDS011;37677;53.254;6.594;2023-07-22T02:03:41;8.27;;;4.15;;
51594;SDS011;37677;53.254;6.594;2023-07-22T02:06:07;9.85;;;4.45;;
51594;SDS011;37677;53.254;6.594;2023-07-22T02:08:35;6.57;;;4.22;;
51594;SDS011;37677;53.254;6.594;2023-07-22T02:11:05;5.65;;;4.22;;
51594;SDS011;37677;53.254;6.594;2023-07-22T02:13:31;6.68;;;4.07;;
51594;SDS011;37677;53.254;6.594;2023-07-22T02:15:58;5.03;;;4.15;;
51594;SDS011;37677;53.254;6.594;2023-07-22T02:18:24;6.80;;;3.88;;
51594;SDS011;37677;53.254;6.594;2023-07-22T02:20:51;7.32;;;4.70;;
51594;SDS011;37677;53.254;6.594;2023-07-22T02:23:18;7.35;;;4.65;;
51594;SDS011;37677;53.254;6.594;2023-07-22T02:25:44;6.68;;;4.25;;
51594;SDS011;37677;53.254;6.594;2023-07-22T02:28:10;6.78;;;4.00;;
51594;SDS011;37677;53.254;6.594;2023-07-22T02:30:36;5.50;;;4.28;;
51594;SDS011;37677;53.254;6.594;2023-07-22T02:33:04;6.72;;;4.40;;
51594;SDS011;37677;53.254;6.594;2023-07-22T02:35:31;6.40;;;3.75;;
51594;SDS011;37677;53.254;6.594;2023-07-22T02:37:58;6.72;;;4.80;;
51594;SDS011;37677;53.254;6.594;2023-07-22T02:40:24;5.95;;;4.22;;
51594;SDS011;37677;53.254;6.594;2023-07-22T02:42:50;6.10;;;4.55;;
51594;SDS011;37677;53.254;6.594;2023-07-22T02:45:17;5.75;;;4.55;;
51594;SDS011;37677;53.254;6.594;2023-07-22T02:47:50;7.03;;;4.60;;
51594;SDS011;37677;53.254;6.594;2023-07-22T02:50:22;8.02;;;4.55;;
51594;SDS011;37677;53.254;6.594;2023-07-22T02:52:50;5.13;;;4.47;;
51594;SDS011;37677;53.254;6.594;2023-07-22T02:55:16;5.55;;;4.32;;
51594;SDS011;37677;53.254;6.594;2023-07-22T02:57:53;9.13;;;4.50;;
51594;SDS011;37677;53.254;6.594;2023-07-22T03:00:20;6.28;;;4.30;;
51594;SDS011;37677;53.254;6.594;2023-07-22T03:02:50;5.53;;;3.85;;
51594;SDS011;37677;53.254;6.594;2023-07-22T03:05:17;4.82;;;3.83;;
51594;SDS011;37677;53.254;6.594;2023-07-22T03:07:43;5.43;;;3.88;;
51594;SDS011;37677;53.254;6.594;2023-07-22T03:10:09;5.70;;;4.00;;
51594;SDS011;37677;53.254;6.594;2023-07-22T03:12:36;5.63;;;3.65;;
51594;SDS011;37677;53.254;6.594;2023-07-22T03:15:02;5.20;;;4.05;;
51594;SDS011;37677;53.254;6.594;2023-07-22T03:17:34;7.28;;;4.40;;
51594;SDS011;37677;53.254;6.594;2023-07-22T03:20:01;5.10;;;3.65;;
51594;SDS011;37677;53.254;6.594;2023-07-22T03:22:32;4.20;;;3.50;;
51594;SDS011;37677;53.254;6.594;2023-07-22T03:24:58;5.35;;;3.63;;
51594;SDS011;37677;53.254;6.594;2023-07-22T03:27:25;4.55;;;3.80;;
51594;SDS011;37677;53.254;6.594;2023-07-22T03:29:52;7.38;;;3.85;;
51594;SDS011;37677;53.254;6.594;2023-07-22T03:32:18;5.65;;;4.05;;
51594;SDS011;37677;53.254;6.594;2023-07-22T03:34:44;7.22;;;4.25;;
51594;SDS011;37677;53.254;6.594;2023-07-22T03:37:10;6.68;;;3.85;;
51594;SDS011;37677;53.254;6.594;2023-07-22T03:39:38;8.00;;;4.28;;
51594;SDS011;37677;53.254;6.594;2023-07-22T03:42:04;7.93;;;4.20;;
51594;SDS011;37677;53.254;6.594;2023-07-22T03:44:30;7.10;;;4.72;;
51594;SDS011;37677;53.254;6.594;2023-07-22T03:47:00;6.43;;;4.20;;
51594;SDS011;37677;53.254;6.594;2023-07-22T03:49:26;10.65;;;4.95;;
51594;SDS011;37677;53.254;6.594;2023-07-22T03:51:52;6.07;;;4.20;;
51594;SDS011;37677;53.254;6.594;2023-07-22T03:54:18;5.63;;;4.50;;
51594;SDS011;37677;53.254;6.594;2023-07-22T03:56:44;7.95;;;4.47;;
51594;SDS011;37677;53.254;6.594;2023-07-22T03:59:10;5.22;;;3.92;;
51594;SDS011;37677;53.254;6.594;2023-07-22T04:01:37;5.45;;;4.18;;
51594;SDS011;37677;53.254;6.594;2023-07-22T04:04:03;6.75;;;5.20;;
51594;SDS011;37677;53.254;6.594;2023-07-22T04:06:29;5.35;;;4.35;;
51594;SDS011;37677;53.254;6.594;2023-07-22T04:08:55;7.35;;;3.92;;
51594;SDS011;37677;53.254;6.594;2023-07-22T04:11:23;4.82;;;4.03;;
51594;SDS011;37677;53.254;6.594;2023-07-22T04:13:49;5.82;;;4.00;;
51594;SDS011;37677;53.254;6.594;2023-07-22T04:16:15;6.75;;;4.53;;
51594;SDS011;37677;53.254;6.594;2023-07-22T04:18:41;7.18;;;4.40;;
51594;SDS011;37677;53.254;6.594;2023-07-22T04:21:07;7.13;;;4.20;;
51594;SDS011;37677;53.254;6.594;2023-07-22T04:23:35;6.35;;;3.90;;
51594;SDS011;37677;53.254;6.594;2023-07-22T04:26:02;5.38;;;3.97;;
51594;SDS011;37677;53.254;6.594;2023-07-22T04:28:34;4.90;;;3.75;;
51594;SDS011;37677;53.254;6.594;2023-07-22T04:31:01;7.10;;;3.85;;
51594;SDS011;37677;53.254;6.594;2023-07-22T04:33:27;6.50;;;3.88;;
51594;SDS011;37677;53.254;6.594;2023-07-22T04:35:56;6.18;;;3.88;;
51594;SDS011;37677;53.254;6.594;2023-07-22T04:38:22;5.55;;;3.60;;
51594;SDS011;37677;53.254;6.594;2023-07-22T04:40:48;6.60;;;4.30;;
51594;SDS011;37677;53.254;6.594;2023-07-22T04:43:18;5.15;;;3.58;;
51594;SDS011;37677;53.254;6.594;2023-07-22T04:45:47;3.83;;;3.25;;
51594;SDS011;37677;53.254;6.594;2023-07-22T04:48:19;6.90;;;3.70;;
51594;SDS011;37677;53.254;6.594;2023-07-22T04:50:51;8.10;;;3.75;;
51594;SDS011;37677;53.254;6.594;2023-07-22T04:53:20;5.85;;;3.55;;
51594;SDS011;37677;53.254;6.594;2023-07-22T04:58:20;4.60;;;3.53;;
51594;SDS011;37677;53.254;6.594;2023-07-22T05:00:46;7.53;;;4.15;;
51594;SDS011;37677;53.254;6.594;2023-07-22T05:03:14;4.85;;;4.00;;
51594;SDS011;37677;53.254;6.594;2023-07-22T05:05:41;8.38;;;5.07;;
51594;SDS011;37677;53.254;6.594;2023-07-22T05:08:07;6.85;;;4.15;;
51594;SDS011;37677;53.254;6.594;2023-07-22T05:10:33;9.15;;;5.00;;
51594;SDS011;37677;53.254;6.594;2023-07-22T05:13:00;6.03;;;4.80;;
51594;SDS011;37677;53.254;6.594;2023-07-22T05:15:26;6.47;;;4.80;;
51594;SDS011;37677;53.254;6.594;2023-07-22T05:17:52;8.50;;;4.60;;
51594;SDS011;37677;53.254;6.594;2023-07-22T05:20:18;6.20;;;5.03;;
51594;SDS011;37677;53.254;6.594;2023-07-22T05:22:48;6.55;;;4.63;;
51594;SDS011;37677;53.254;6.594;2023-07-22T05:25:14;6.55;;;5.28;;
51594;SDS011;37677;53.254;6.594;2023-07-22T05:27:40;9.05;;;5.70;;
51594;SDS011;37677;53.254;6.594;2023-07-22T05:30:07;6.03;;;5.15;;
51594;SDS011;37677;53.254;6.594;2023-07-22T05:32:33;6.68;;;5.03;;
51594;SDS011;37677;53.254;6.594;2023-07-22T05:34:59;7.45;;;6.28;;
51594;SDS011;37677;53.254;6.594;2023-07-22T05:37:27;6.47;;;4.97;;
51594;SDS011;37677;53.254;6.594;2023-07-22T05:39:56;6.97;;;5.57;;
51594;SDS011;37677;53.254;6.594;2023-07-22T05:42:22;7.22;;;5.65;;
51594;SDS011;37677;53.254;6.594;2023-07-22T05:44:49;9.27;;;6.45;;
51594;SDS011;37677;53.254;6.594;2023-07-22T05:47:15;8.45;;;6.18;;
51594;SDS011;37677;53.254;6.594;2023-07-22T05:49:41;7.88;;;5.88;;
51594;SDS011;37677;53.254;6.594;2023-07-22T05:52:07;8.98;;;5.47;;
51594;SDS011;37677;53.254;6.594;2023-07-22T05:54:33;8.73;;;7.15;;
51594;SDS011;37677;53.254;6.594;2023-07-22T05:56:59;8.45;;;6.55;;
51594;SDS011;37677;53.254;6.594;2023-07-22T05:59:26;9.07;;;5.82;;
51594;SDS011;37677;53.254;6.594;2023-07-22T06:01:52;7.78;;;6.95;;
51594;SDS011;37677;53.254;6.594;2023-07-22T06:04:18;9.02;;;6.95;;
51594;SDS011;37677;53.254;6.594;2023-07-22T06:06:44;6.93;;;6.15;;
51594;SDS011;37677;53.254;6.594;2023-07-22T06:09:10;8.32;;;6.78;;
51594;SDS011;37677;53.254;6.594;2023-07-22T06:11:39;9.48;;;7.22;;
51594;SDS011;37677;53.254;6.594;2023-07-22T06:14:05;8.07;;;6.95;;
51594;SDS011;37677;53.254;6.594;2023-07-22T06:16:34;10.32;;;7.45;;
51594;SDS011;37677;53.254;6.594;2023-07-22T06:19:00;7.50;;;6.68;;
51594;SDS011;37677;53.254;6.594;2023-07-22T06:21:26;7.55;;;6.75;;
51594;SDS011;37677;53.254;6.594;2023-07-22T06:23:52;8.68;;;6.65;;
51594;SDS011;37677;53.254;6.594;2023-07-22T06:26:19;9.20;;;7.72;;
51594;SDS011;37677;53.254;6.594;2023-07-22T06:31:16;12.10;;;7.80;;
51594;SDS011;37677;53.254;6.594;2023-07-22T06:33:43;10.57;;;7.78;;
51594;SDS011;37677;53.254;6.594;2023-07-22T06:36:09;11.82;;;7.80;;
51594;SDS011;37677;53.254;6.594;2023-07-22T06:38:35;8.55;;;7.65;;
51594;SDS011;37677;53.254;6.594;2023-07-22T06:41:03;10.75;;;7.85;;
51594;SDS011;37677;53.254;6.594;2023-07-22T06:43:30;10.00;;;8.15;;
51594;SDS011;37677;53.254;6.594;2023-07-22T06:45:56;10.60;;;7.97;;
51594;SDS011;37677;53.254;6.594;2023-07-22T06:48:22;11.68;;;8.10;;
51594;SDS011;37677;53.254;6.594;2023-07-22T06:50:49;10.85;;;8.13;;
51594;SDS011;37677;53.254;6.594;2023-07-22T06:55:51;10.63;;;8.68;;
51594;SDS011;37677;53.254;6.594;2023-07-22T06:58:20;11.20;;;9.38;;
51594;SDS011;37677;53.254;6.594;2023-07-22T07:00:48;10.88;;;8.68;;
51594;SDS011;37677;53.254;6.594;2023-07-22T07:03:18;10.93;;;8.77;;
51594;SDS011;37677;53.254;6.594;2023-07-22T07:05:44;11.55;;;8.68;;
51594;SDS011;37677;53.254;6.594;2023-07-22T07:08:11;9.70;;;8.63;;
51594;SDS011;37677;53.254;6.594;2023-07-22T07:10:38;10.60;;;8.35;;
51594;SDS011;37677;53.254;6.594;2023-07-22T07:13:05;10.57;;;8.45;;
51594;SDS011;37677;53.254;6.594;2023-07-22T07:15:31;11.30;;;8.68;;
51594;SDS011;37677;53.254;6.594;2023-07-22T07:17:58;10.25;;;9.25;;
51594;SDS011;37677;53.254;6.594;2023-07-22T07:20:24;9.77;;;8.63;;
51594;SDS011;37677;53.254;6.594;2023-07-22T07:22:53;9.75;;;8.35;;
51594;SDS011;37677;53.254;6.594;2023-07-22T07:25:19;12.73;;;8.90;;
51594;SDS011;37677;53.254;6.594;2023-07-22T07:27:45;10.73;;;8.27;;
51594;SDS011;37677;53.254;6.594;2023-07-22T07:30:11;11.02;;;8.18;;
51594;SDS011;37677;53.254;6.594;2023-07-22T07:32:37;10.15;;;8.32;;
51594;SDS011;37677;53.254;6.594;2023-07-22T07:35:03;11.55;;;9.27;;
51594;SDS011;37677;53.254;6.594;2023-07-22T07:37:31;11.80;;;9.77;;
51594;SDS011;37677;53.254;6.594;2023-07-22T07:39:57;13.07;;;9.65;;
51594;SDS011;37677;53.254;6.594;2023-07-22T07:42:30;10.82;;;9.38;;
51594;SDS011;37677;53.254;6.594;2023-07-22T07:45:02;12.85;;;9.30;;
51594;SDS011;37677;53.254;6.594;2023-07-22T07:47:28;11.48;;;9.20;;
51594;SDS011;37677;53.254;6.594;2023-07-22T07:49:54;13.32;;;8.98;;
51594;SDS011;37677;53.254;6.594;2023-07-22T07:52:21;12.77;;;9.80;;
51594;SDS011;37677;53.254;6.594;2023-07-22T07:54:50;13.35;;;9.27;;
51594;SDS011;37677;53.254;6.594;2023-07-22T07:57:16;13.20;;;9.48;;
51594;SDS011;37677;53.254;6.594;2023-07-22T07:59:42;11.23;;;9.60;;
51594;SDS011;37677;53.254;6.594;2023-07-22T08:02:08;11.05;;;9.30;;
51594;SDS011;37677;53.254;6.594;2023-07-22T08:04:35;10.60;;;9.02;;
51594;SDS011;37677;53.254;6.594;2023-07-22T08:07:02;10.45;;;9.13;;
51594;SDS011;37677;53.254;6.594;2023-07-22T08:09:29;13.07;;;9.52;;
51594;SDS011;37677;53.254;6.594;2023-07-22T08:11:55;13.00;;;9.73;;
51594;SDS011;37677;53.254;6.594;2023-07-22T08:14:21;12.07;;;9.77;;
51594;SDS011;37677;53.254;6.594;2023-07-22T08:16:47;11.93;;;9.15;;
51594;SDS011;37677;53.254;6.594;2023-07-22T08:19:13;15.38;;;9.43;;
51594;SDS011;37677;53.254;6.594;2023-07-22T08:21:39;12.95;;;8.75;;
51594;SDS011;37677;53.254;6.594;2023-07-22T08:24:05;9.00;;;7.53;;
51594;SDS011;37677;53.254;6.594;2023-07-22T08:26:32;10.18;;;9.05;;
51594;SDS011;37677;53.254;6.594;2023-07-22T08:28:58;11.07;;;7.68;;
51594;SDS011;37677;53.254;6.594;2023-07-22T08:31:24;10.55;;;8.52;;
51594;SDS011;37677;53.254;6.594;2023-07-22T08:33:50;9.05;;;7.65;;
51594;SDS011;37677;53.254;6.594;2023-07-22T08:36:17;9.38;;;7.03;;
51594;SDS011;37677;53.254;6.594;2023-07-22T08:38:44;9.45;;;7.32;;
51594;SDS011;37677;53.254;6.594;2023-07-22T08:41:13;7.85;;;7.10;;
51594;SDS011;37677;53.254;6.594;2023-07-22T08:43:40;10.45;;;7.70;;
51594;SDS011;37677;53.254;6.594;2023-07-22T08:46:07;8.40;;;7.45;;
51594;SDS011;37677;53.254;6.594;2023-07-22T08:48:34;9.25;;;7.22;;
51594;SDS011;37677;53.254;6.594;2023-07-22T08:51:15;8.77;;;7.55;;
51594;SDS011;37677;53.254;6.594;2023-07-22T08:53:47;8.77;;;7.50;;
51594;SDS011;37677;53.254;6.594;2023-07-22T08:56:13;8.75;;;7.68;;
51594;SDS011;37677;53.254;6.594;2023-07-22T08:58:39;8.15;;;7.30;;
51594;SDS011;37677;53.254;6.594;2023-07-22T09:01:08;8.52;;;7.55;;
51594;SDS011;37677;53.254;6.594;2023-07-22T09:03:34;6.50;;;5.80;;
51594;SDS011;37677;53.254;6.594;2023-07-22T09:06:00;7.07;;;6.38;;
51594;SDS011;37677;53.254;6.594;2023-07-22T09:08:27;7.22;;;5.97;;
51594;SDS011;37677;53.254;6.594;2023-07-22T09:10:53;7.88;;;5.18;;
51594;SDS011;37677;53.254;6.594;2023-07-22T09:13:19;8.75;;;5.60;;
51594;SDS011;37677;53.254;6.594;2023-07-22T09:15:46;5.82;;;5.25;;
51594;SDS011;37677;53.254;6.594;2023-07-22T09:18:17;8.38;;;5.78;;
51594;SDS011;37677;53.254;6.594;2023-07-22T09:20:43;6.65;;;5.25;;
51594;SDS011;37677;53.254;6.594;2023-07-22T09:23:09;6.65;;;4.70;;
51594;SDS011;37677;53.254;6.594;2023-07-22T09:25:35;5.38;;;4.82;;
51594;SDS011;37677;53.254;6.594;2023-07-22T09:28:01;7.20;;;5.07;;
51594;SDS011;37677;53.254;6.594;2023-07-22T09:30:32;7.25;;;5.25;;
51594;SDS011;37677;53.254;6.594;2023-07-22T09:33:00;6.10;;;4.88;;
51594;SDS011;37677;53.254;6.594;2023-07-22T09:35:30;4.88;;;4.32;;
51594;SDS011;37677;53.254;6.594;2023-07-22T09:37:58;6.28;;;5.03;;
51594;SDS011;37677;53.254;6.594;2023-07-22T09:40:25;5.07;;;4.20;;
51594;SDS011;37677;53.254;6.594;2023-07-22T09:45:18;6.95;;;5.40;;
51594;SDS011;37677;53.254;6.594;2023-07-22T09:47:45;9.65;;;6.47;;
51594;SDS011;37677;53.254;6.594;2023-07-22T09:53:20;9.93;;;7.13;;
51594;SDS011;37677;53.254;6.594;2023-07-22T09:55:46;8.75;;;6.45;;
51594;SDS011;37677;53.254;6.594;2023-07-22T09:58:19;10.43;;;7.07;;
51594;SDS011;37677;53.254;6.594;2023-07-22T10:00:48;13.25;;;7.68;;
51594;SDS011;37677;53.254;6.594;2023-07-22T10:03:14;8.88;;;7.43;;
51594;SDS011;37677;53.254;6.594;2023-07-22T10:05:41;10.57;;;7.82;;
51594;SDS011;37677;53.254;6.594;2023-07-22T10:08:08;13.23;;;9.55;;
51594;SDS011;37677;53.254;6.594;2023-07-22T10:10:35;11.27;;;8.75;;
51594;SDS011;37677;53.254;6.594;2023-07-22T10:13:03;9.25;;;7.82;;
51594;SDS011;37677;53.254;6.594;2023-07-22T10:15:30;8.80;;;7.35;;
51594;SDS011;37677;53.254;6.594;2023-07-22T10:17:56;8.52;;;7.60;;
51594;SDS011;37677;53.254;6.594;2023-07-22T10:20:23;9.25;;;7.63;;
51594;SDS011;37677;53.254;6.594;2023-07-22T10:22:49;8.60;;;7.15;;
51594;SDS011;37677;53.254;6.594;2023-07-22T10:25:17;7.95;;;6.90;;
51594;SDS011;37677;53.254;6.594;2023-07-22T10:27:59;9.70;;;6.03;;
51594;SDS011;37677;53.254;6.594;2023-07-22T10:30:30;9.45;;;6.90;;
51594;SDS011;37677;53.254;6.594;2023-07-22T10:32:56;7.85;;;6.70;;
51594;SDS011;37677;53.254;6.594;2023-07-22T10:38:08;7.90;;;6.90;;
51594;SDS011;37677;53.254;6.594;2023-07-22T10:40:51;9.85;;;7.55;;
51594;SDS011;37677;53.254;6.594;2023-07-22T10:43:18;8.13;;;6.55;;
51594;SDS011;37677;53.254;6.594;2023-07-22T10:45:51;8.10;;;6.88;;
51594;SDS011;37677;53.254;6.594;2023-07-22T10:48:17;10.38;;;7.22;;
51594;SDS011;37677;53.254;6.594;2023-07-22T10:50:44;8.27;;;6.68;;
51594;SDS011;37677;53.254;6.594;2023-07-22T10:53:12;7.70;;;6.63;;
51594;SDS011;37677;53.254;6.594;2023-07-22T10:58:23;8.02;;;7.07;;
51594;SDS011;37677;53.254;6.594;2023-07-22T11:00:49;9.00;;;7.03;;
51594;SDS011;37677;53.254;6.594;2023-07-22T11:03:18;9.48;;;7.32;;
51594;SDS011;37677;53.254;6.594;2023-07-22T11:05:52;11.63;;;7.75;;
51594;SDS011;37677;53.254;6.594;2023-07-22T11:08:39;11.75;;;7.60;;
51594;SDS011;37677;53.254;6.594;2023-07-22T11:11:06;8.38;;;6.35;;
51594;SDS011;37677;53.254;6.594;2023-07-22T11:13:38;8.32;;;6.28;;
51594;SDS011;37677;53.254;6.594;2023-07-22T11:16:09;8.38;;;6.45;;
51594;SDS011;37677;53.254;6.594;2023-07-22T11:18:39;9.57;;;6.72;;
51594;SDS011;37677;53.254;6.594;2023-07-22T11:21:11;7.40;;;6.70;;
51594;SDS011;37677;53.254;6.594;2023-07-22T11:23:38;7.40;;;6.60;;
51594;SDS011;37677;53.254;6.594;2023-07-22T11:26:04;10.18;;;5.20;;
51594;SDS011;37677;53.254;6.594;2023-07-22T11:28:30;7.05;;;5.05;;
51594;SDS011;37677;53.254;6.594;2023-07-22T11:30:57;6.18;;;5.13;;
51594;SDS011;37677;53.254;6.594;2023-07-22T11:33:34;5.82;;;4.95;;
51594;SDS011;37677;53.254;6.594;2023-07-22T11:36:03;6.20;;;5.60;;
51594;SDS011;37677;53.254;6.594;2023-07-22T11:38:29;8.00;;;6.00;;
51594;SDS011;37677;53.254;6.594;2023-07-22T11:40:55;5.57;;;4.75;;
51594;SDS011;37677;53.254;6.594;2023-07-22T11:43:22;6.30;;;5.47;;
51594;SDS011;37677;53.254;6.594;2023-07-22T11:45:48;5.78;;;4.95;;
51594;SDS011;37677;53.254;6.594;2023-07-22T11:48:14;6.55;;;4.60;;
51594;SDS011;37677;53.254;6.594;2023-07-22T11:50:40;7.63;;;5.60;;
51594;SDS011;37677;53.254;6.594;2023-07-22T11:53:06;6.60;;;5.30;;
51594;SDS011;37677;53.254;6.594;2023-07-22T11:55:34;7.03;;;5.57;;
51594;SDS011;37677;53.254;6.594;2023-07-22T11:58:01;6.93;;;5.40;;
51594;SDS011;37677;53.254;6.594;2023-07-22T12:00:28;9.57;;;6.78;;
51594;SDS011;37677;53.254;6.594;2023-07-22T12:02:54;7.55;;;6.00;;
51594;SDS011;37677;53.254;6.594;2023-07-22T12:05:22;7.00;;;5.60;;
51594;SDS011;37677;53.254;6.594;2023-07-22T12:07:48;8.85;;;7.05;;
51594;SDS011;37677;53.254;6.594;2023-07-22T12:10:15;6.18;;;4.90;;
51594;SDS011;37677;53.254;6.594;2023-07-22T12:12:42;10.13;;;7.65;;
51594;SDS011;37677;53.254;6.594;2023-07-22T12:15:13;7.68;;;6.85;;
51594;SDS011;37677;53.254;6.594;2023-07-22T12:17:52;8.90;;;7.65;;
51594;SDS011;37677;53.254;6.594;2023-07-22T12:20:19;7.93;;;7.10;;
51594;SDS011;37677;53.254;6.594;2023-07-22T12:22:45;7.55;;;6.82;;
51594;SDS011;37677;53.254;6.594;2023-07-22T12:25:13;7.82;;;6.68;;
51594;SDS011;37677;53.254;6.594;2023-07-22T12:27:40;9.50;;;7.35;;
51594;SDS011;37677;53.254;6.594;2023-07-22T12:30:06;5.60;;;5.10;;
51594;SDS011;37677;53.254;6.594;2023-07-22T12:32:35;11.18;;;8.38;;
51594;SDS011;37677;53.254;6.594;2023-07-22T12:35:09;12.65;;;9.70;;
51594;SDS011;37677;53.254;6.594;2023-07-22T12:37:38;9.02;;;8.13;;
51594;SDS011;37677;53.254;6.594;2023-07-22T12:40:20;10.43;;;8.63;;
51594;SDS011;37677;53.254;6.594;2023-07-22T12:43:09;10.95;;;9.85;;
51594;SDS011;37677;53.254;6.594;2023-07-22T12:45:35;9.15;;;8.32;;
51594;SDS011;37677;53.254;6.594;2023-07-22T12:48:27;10.65;;;7.95;;
51594;SDS011;37677;53.254;6.594;2023-07-22T13:07:40;13.38;;;10.35;;
51594;SDS011;37677;53.254;6.594;2023-07-22T13:13:16;13.02;;;10.05;;
51594;SDS011;37677;53.254;6.594;2023-07-22T13:15:44;13.60;;;9.90;;
51594;SDS011;37677;53.254;6.594;2023-07-22T13:18:23;12.85;;;10.85;;
51594;SDS011;37677;53.254;6.594;2023-07-22T13:20:50;12.18;;;9.98;;
51594;SDS011;37677;53.254;6.594;2023-07-22T13:23:18;14.05;;;12.35;;
51594;SDS011;37677;53.254;6.594;2023-07-22T13:25:50;11.07;;;9.85;;
51594;SDS011;37677;53.254;6.594;2023-07-22T13:28:22;16.27;;;11.25;;
51594;SDS011;37677;53.254;6.594;2023-07-22T13:34:13;12.32;;;10.20;;
51594;SDS011;37677;53.254;6.594;2023-07-22T13:36:41;11.93;;;9.88;;
51594;SDS011;37677;53.254;6.594;2023-07-22T13:39:10;14.23;;;11.23;;
51594;SDS011;37677;53.254;6.594;2023-07-22T13:41:42;12.70;;;9.50;;
51594;SDS011;37677;53.254;6.594;2023-07-22T13:44:09;12.23;;;10.75;;
51594;SDS011;37677;53.254;6.594;2023-07-22T13:46:39;12.27;;;11.00;;
51594;SDS011;37677;53.254;6.594;2023-07-22T13:49:11;13.40;;;11.57;;
51594;SDS011;37677;53.254;6.594;2023-07-22T13:51:37;14.52;;;11.35;;
51594;SDS011;37677;53.254;6.594;2023-07-22T13:54:03;12.60;;;11.18;;
51594;SDS011;37677;53.254;6.594;2023-07-22T13:56:30;11.68;;;10.48;;
51594;SDS011;37677;53.254;6.594;2023-07-22T13:59:00;11.00;;;9.90;;
51594;SDS011;37677;53.254;6.594;2023-07-22T14:01:29;11.68;;;10.52;;
51594;SDS011;37677;53.254;6.594;2023-07-22T14:06:27;13.00;;;11.05;;
51594;SDS011;37677;53.254;6.594;2023-07-22T14:08:54;11.90;;;10.30;;
51594;SDS011;37677;53.254;6.594;2023-07-22T14:11:20;10.75;;;9.75;;
51594;SDS011;37677;53.254;6.594;2023-07-22T14:13:49;11.02;;;9.85;;
51594;SDS011;37677;53.254;6.594;2023-07-22T14:16:17;11.57;;;9.90;;
51594;SDS011;37677;53.254;6.594;2023-07-22T14:18:43;10.68;;;9.57;;
51594;SDS011;37677;53.254;6.594;2023-07-22T14:21:10;12.13;;;10.07;;
51594;SDS011;37677;53.254;6.594;2023-07-22T14:23:36;10.75;;;9.65;;
51594;SDS011;37677;53.254;6.594;2023-07-22T14:26:02;11.75;;;10.38;;
51594;SDS011;37677;53.254;6.594;2023-07-22T14:28:29;12.00;;;9.93;;
51594;SDS011;37677;53.254;6.594;2023-07-22T14:30:59;10.98;;;9.73;;
51594;SDS011;37677;53.254;6.594;2023-07-22T14:33:32;9.70;;;8.70;;
51594;SDS011;37677;53.254;6.594;2023-07-22T14:35:59;10.18;;;9.05;;
51594;SDS011;37677;53.254;6.594;2023-07-22T14:38:25;10.40;;;9.13;;
51594;SDS011;37677;53.254;6.594;2023-07-22T14:40:53;10.85;;;9.65;;
51594;SDS011;37677;53.254;6.594;2023-07-22T14:43:19;10.02;;;8.82;;
51594;SDS011;37677;53.254;6.594;2023-07-22T14:45:46;10.88;;;9.13;;
51594;SDS011;37677;53.254;6.594;2023-07-22T14:48:14;12.68;;;9.75;;
51594;SDS011;37677;53.254;6.594;2023-07-22T14:50:40;11.63;;;9.73;;
51594;SDS011;37677;53.254;6.594;2023-07-22T14:53:06;10.00;;;8.25;;
51594;SDS011;37677;53.254;6.594;2023-07-22T14:55:32;12.35;;;11.00;;
51594;SDS011;37677;53.254;6.594;2023-07-22T14:57:58;11.07;;;9.98;;
51594;SDS011;37677;53.254;6.594;2023-07-22T15:00:25;10.50;;;9.25;;
51594;SDS011;37677;53.254;6.594;2023-07-22T15:02:51;9.07;;;8.18;;
51594;SDS011;37677;53.254;6.594;2023-07-22T15:05:17;7.45;;;6.60;;
51594;SDS011;37677;53.254;6.594;2023-07-22T15:07:43;8.30;;;6.53;;
51594;SDS011;37677;53.254;6.594;2023-07-22T15:10:11;10.50;;;6.07;;
51594;SDS011;37677;53.254;6.594;2023-07-22T15:12:39;7.97;;;5.88;;
51594;SDS011;37677;53.254;6.594;2023-07-22T15:15:06;18.38;;;6.13;;
51594;SDS011;37677;53.254;6.594;2023-07-22T15:17:32;8.25;;;5.63;;
51594;SDS011;37677;53.254;6.594;2023-07-22T15:19:59;7.43;;;5.28;;
51594;SDS011;37677;53.254;6.594;2023-07-22T15:22:25;8.40;;;5.70;;
51594;SDS011;37677;53.254;6.594;2023-07-22T15:24:51;7.80;;;5.43;;
51594;SDS011;37677;53.254;6.594;2023-07-22T15:27:17;7.82;;;5.50;;
51594;SDS011;37677;53.254;6.594;2023-07-22T15:29:44;10.55;;;6.32;;
51594;SDS011;37677;53.254;6.594;2023-07-22T15:32:10;7.15;;;5.53;;